createdAt,value
2023-05-23T00:14:21.565Z,68.52
2023-05-23T00:17:41.183Z,70.00
2023-05-23T00:26:14.413Z,71.20
2023-05-23T00:29:09.958Z,70.93
2023-05-23T00:42:16.694Z,72.18
2023-05-23T00:45:13.539Z,72.77
2023-05-23T00:53:20.364Z,73.54
2023-05-23T01:01:42.339Z,72.39
2023-05-23T01:06:43.036Z,72.30
2023-05-23T01:12:43.466Z,72.27
2023-05-23T01:15:16.952Z,72.13
2023-05-23T01:18:11.486Z,72.06
2023-05-23T01:21:20.875Z,71.56
2023-05-23T01:25:12.291Z,71.99
2023-05-23T01:54:43.434Z,71.96
2023-05-23T02:18:15.925Z,70.48
2023-05-23T02:27:23.106Z,70.94
2023-05-23T02:29:56.835Z,70.86
2023-05-23T02:33:27.975Z,71.29
2023-05-23T02:35:22.154Z,71.10
2023-05-23T02:38:21.678Z,70.89
2023-05-23T02:40:51.474Z,71.32
2023-05-23T02:43:20.107Z,71.46
2023-05-23T02:51:48.641Z,71.68
2023-05-23T02:54:18.968Z,71.44
2023-05-23T02:57:16.538Z,72.07
2023-05-23T03:02:50.186Z,72.07
2023-05-23T03:05:18.892Z,72.03
2023-05-23T03:07:47.292Z,72.05
2023-05-23T03:13:19.846Z,72.11
2023-05-23T03:21:20.396Z,73.10
2023-05-23T03:24:18.390Z,73.22
2023-05-23T03:30:19.420Z,73.51
2023-05-23T03:33:23.803Z,73.73
2023-05-23T03:35:53.707Z,73.67
2023-05-23T03:38:22.700Z,73.92
2023-05-23T03:41:18.996Z,74.00
2023-05-23T03:44:18.007Z,74.12
2023-05-23T03:46:49.273Z,74.52
2023-05-23T03:49:18.943Z,75.12
2023-05-23T03:52:18.423Z,75.39
2023-05-23T03:55:19.212Z,75.29
2023-05-23T03:57:54.809Z,75.46
2023-05-23T04:00:23.918Z,75.59
2023-05-23T04:06:19.217Z,76.42
2023-05-23T04:08:57.028Z,76.65
2023-05-23T04:11:27.603Z,76.69
2023-05-23T04:14:27.109Z,76.71
2023-05-23T04:23:20.314Z,77.43
2023-05-23T04:26:21.427Z,77.02
2023-05-23T04:29:21.410Z,76.93
2023-05-23T04:35:22.218Z,77.79
2023-05-23T04:41:25.667Z,78.01
2023-05-23T04:44:22.564Z,78.23
2023-05-23T04:47:20.072Z,77.83
2023-05-23T04:53:08.718Z,78.41
2023-05-23T04:56:22.112Z,79.24
2023-05-23T05:07:23.212Z,78.93
2023-05-23T05:10:23.736Z,78.95
2023-05-23T05:16:22.783Z,79.27
2023-05-23T05:19:20.691Z,79.22
2023-05-23T05:22:24.224Z,79.71
2023-05-23T05:27:28.018Z,79.77
2023-05-23T05:34:21.925Z,80.50
2023-05-23T05:36:56.911Z,80.25
2023-05-23T05:39:27.333Z,80.52
2023-05-23T05:41:58.654Z,80.63
2023-05-23T05:50:19.948Z,80.50
2023-05-23T05:53:23.121Z,81.23
2023-05-23T05:56:27.071Z,81.02
2023-05-23T05:58:55.763Z,80.57
2023-05-23T06:01:27.742Z,81.19
2023-05-23T06:04:25.801Z,81.30
2023-05-23T06:10:22.815Z,81.03
2023-05-23T06:13:24.311Z,81.16
2023-05-23T06:19:24.291Z,80.92
2023-05-23T06:22:27.796Z,80.75
2023-05-23T06:25:28.509Z,81.09
2023-05-23T06:28:24.241Z,81.48
2023-05-23T06:31:23.515Z,81.66
2023-05-23T06:37:28.734Z,81.94
2023-05-23T06:40:27.380Z,82.14
2023-05-23T06:43:01.017Z,81.94
2023-05-23T06:45:32.290Z,81.62
2023-05-23T06:48:32.132Z,82.33
2023-05-23T06:51:33.089Z,82.53
2023-05-23T06:54:01.570Z,82.57
2023-05-23T06:56:31.841Z,82.36
2023-05-23T06:59:32.756Z,82.45
2023-05-23T07:02:25.701Z,82.27
2023-05-23T07:05:04.235Z,82.22
2023-05-23T07:07:32.778Z,82.68
2023-05-23T07:13:25.554Z,82.85
2023-05-23T07:15:58.023Z,82.41
2023-05-23T07:18:26.602Z,82.31
2023-05-23T07:26:26.232Z,82.68
2023-05-23T07:40:24.230Z,83.32
2023-05-23T07:43:28.525Z,83.20
2023-05-23T07:46:27.614Z,83.28
2023-05-23T07:48:56.360Z,83.40
2023-05-23T07:51:27.739Z,83.12
2023-05-23T07:59:55.656Z,83.62
2023-05-23T08:02:27.110Z,83.34
2023-05-23T08:11:09.769Z,83.88
2023-05-23T08:20:31.686Z,84.76
2023-05-23T08:29:29.282Z,84.59
2023-05-23T08:32:26.562Z,84.41
2023-05-23T08:35:26.647Z,84.63
2023-05-23T08:38:28.113Z,84.87
2023-05-23T08:41:28.530Z,84.88
2023-05-23T08:43:57.212Z,84.70
2023-05-23T08:46:29.461Z,85.05
2023-05-23T08:49:26.333Z,85.10
2023-05-23T08:52:28.943Z,85.28
2023-05-23T08:54:57.823Z,84.97
2023-05-23T08:57:27.697Z,84.90
2023-05-23T09:00:27.138Z,85.08
2023-05-23T09:03:29.634Z,85.31
2023-05-23T09:06:01.069Z,85.18
2023-05-23T09:08:32.593Z,85.41
2023-05-23T09:11:30.327Z,85.33
2023-05-23T09:17:25.832Z,85.06
2023-05-23T09:20:26.979Z,85.21
2023-05-23T09:25:29.060Z,85.61
2023-05-23T09:28:01.598Z,85.41
2023-05-23T09:30:35.450Z,85.73
2023-05-23T09:37:28.074Z,86.34
2023-05-23T09:43:30.089Z,86.35
2023-05-23T09:46:31.626Z,86.60
2023-05-23T09:49:33.287Z,86.66
2023-05-23T09:56:30.325Z,86.43
2023-05-23T09:59:32.764Z,86.42
2023-05-23T10:02:57.718Z,86.69
2023-05-23T10:05:34.321Z,86.89
2023-05-23T10:08:08.236Z,86.41
2023-05-23T10:11:32.924Z,86.80
2023-05-23T10:14:30.263Z,86.62
2023-05-23T10:17:27.948Z,86.52
2023-05-23T10:20:09.216Z,86.87
2023-05-23T10:22:59.891Z,87.12
2023-05-23T10:25:31.478Z,87.12
2023-05-23T10:28:31.563Z,88.07
2023-05-23T10:31:29.526Z,87.50
2023-05-23T10:34:37.359Z,87.60
2023-05-23T10:37:44.049Z,87.21
2023-05-23T10:41:28.031Z,87.01
2023-05-23T10:44:59.643Z,86.91
2023-05-23T10:47:31.110Z,86.97
2023-05-23T10:53:31.445Z,86.92
2023-05-23T10:55:59.927Z,86.90
2023-05-23T10:58:33.301Z,86.92
2023-05-23T11:01:28.987Z,87.10
2023-05-23T11:04:31.111Z,87.29
2023-05-23T11:07:00.469Z,87.35
2023-05-23T11:09:31.979Z,87.57
2023-05-23T11:12:37.329Z,87.30
2023-05-23T11:22:28.995Z,87.58
2023-05-23T11:25:30.320Z,88.50
2023-05-23T11:28:30.294Z,88.54
2023-05-23T11:36:32.808Z,88.37
2023-05-23T11:39:30.160Z,88.47
2023-05-23T11:42:02.542Z,88.65
2023-05-23T11:47:31.511Z,88.95
2023-05-23T11:50:34.353Z,88.83
2023-05-23T11:56:34.312Z,86.96
2023-05-23T11:59:30.635Z,86.20
2023-05-23T12:02:04.353Z,84.86
2023-05-23T12:04:32.859Z,84.45
2023-05-23T12:07:01.249Z,84.16
2023-05-23T12:09:30.111Z,84.31
2023-05-23T12:12:04.721Z,83.58
2023-05-23T12:22:00.315Z,82.63
2023-05-23T12:24:31.565Z,83.12
2023-05-23T12:27:40.509Z,83.31
2023-05-23T12:34:33.568Z,83.04
2023-05-23T12:40:33.152Z,82.91
2023-05-23T12:46:15.181Z,83.48
2023-05-23T12:55:39.568Z,83.30
2023-05-23T13:01:37.505Z,83.54
2023-05-23T13:07:38.996Z,84.31
2023-05-23T13:14:04.805Z,83.62
2023-05-23T13:19:41.864Z,83.73
2023-05-23T13:22:44.090Z,83.89
2023-05-23T13:25:43.585Z,83.47
2023-05-23T13:34:04.993Z,84.08
2023-05-23T13:55:35.133Z,84.38
2023-05-23T13:58:03.722Z,84.23
2023-05-23T14:03:42.198Z,84.16
2023-05-23T14:06:50.415Z,84.19
2023-05-23T14:09:48.548Z,84.63
2023-05-23T14:12:33.410Z,84.80
2023-05-23T14:15:04.701Z,84.57
2023-05-23T14:17:34.437Z,84.98
2023-05-23T14:20:04.584Z,84.75
2023-05-23T14:22:32.988Z,85.16
2023-05-23T14:25:01.606Z,85.65
2023-05-23T14:27:35.343Z,85.38
2023-05-23T14:30:03.973Z,85.20
2023-05-23T14:32:39.702Z,84.72
2023-05-23T14:35:09.400Z,84.96
2023-05-23T14:37:37.905Z,84.83
2023-05-23T14:40:07.908Z,85.32
2023-05-23T14:42:36.694Z,84.68
2023-05-23T14:45:05.755Z,84.83
2023-05-23T14:47:34.149Z,84.68
2023-05-23T14:50:02.800Z,84.85
2023-05-23T14:52:36.868Z,84.66
2023-05-23T14:55:05.428Z,84.49
2023-05-23T14:57:34.214Z,84.33
2023-05-23T15:00:06.766Z,84.38
2023-05-23T15:02:36.098Z,84.64
2023-05-23T15:05:06.017Z,84.83
2023-05-23T15:07:34.997Z,84.55
2023-05-23T15:10:04.197Z,84.46
2023-05-23T15:12:32.569Z,84.37
2023-05-23T15:15:04.877Z,84.30
2023-05-23T15:17:35.582Z,84.12
2023-05-23T15:20:06.762Z,84.02
2023-05-23T15:22:47.173Z,83.70
2023-05-23T15:25:38.427Z,83.79
2023-05-23T15:29:21.667Z,83.42
2023-05-23T15:31:58.849Z,83.68
2023-05-23T15:34:27.771Z,83.79
2023-05-23T15:37:02.798Z,83.84
2023-05-23T15:39:31.651Z,83.92
2023-05-23T15:42:05.828Z,83.61
2023-05-23T15:44:34.299Z,83.72
2023-05-23T15:47:02.856Z,83.79
2023-05-23T15:49:31.736Z,83.97
2023-05-23T15:52:00.159Z,84.08
2023-05-23T15:54:29.092Z,83.80
2023-05-23T15:56:57.444Z,83.81
2023-05-23T15:59:25.851Z,83.82
2023-05-23T16:01:54.633Z,83.74
2023-05-23T16:04:24.258Z,83.80
2023-05-23T16:06:52.570Z,83.50
2023-05-23T16:09:20.918Z,83.33
2023-05-23T16:11:49.205Z,82.75
2023-05-23T16:14:17.666Z,82.68
2023-05-23T16:16:46.401Z,82.75
2023-05-23T16:19:23.963Z,83.03
2023-05-23T16:21:52.515Z,82.91
2023-05-23T16:24:21.643Z,82.83
2023-05-23T16:26:50.095Z,82.76
2023-05-23T16:29:18.460Z,82.45
2023-05-23T16:31:46.938Z,82.02
2023-05-23T16:34:15.330Z,81.51
2023-05-23T16:36:43.589Z,81.91
2023-05-23T16:39:11.997Z,81.85
2023-05-23T16:41:40.542Z,81.59
2023-05-23T16:44:08.847Z,81.59
2023-05-23T16:46:38.484Z,81.33
2023-05-23T16:49:06.819Z,81.37
2023-05-23T16:51:35.316Z,81.05
2023-05-23T16:54:04.763Z,81.18
2023-05-23T16:56:33.074Z,81.02
2023-05-23T16:59:01.739Z,81.23
2023-05-23T17:01:30.814Z,81.51
2023-05-23T17:03:59.468Z,81.29
2023-05-23T17:06:27.812Z,81.21
2023-05-23T17:08:56.630Z,80.96
2023-05-23T17:11:26.238Z,80.46
2023-05-23T17:13:55.210Z,80.18
2023-05-23T17:16:24.756Z,80.27
2023-05-23T17:18:58.479Z,79.89
2023-05-23T17:21:27.497Z,80.07
2023-05-23T17:23:56.560Z,79.90
2023-05-23T17:26:25.402Z,80.11
2023-05-23T17:28:53.747Z,79.83
2023-05-23T17:31:22.696Z,79.79
2023-05-23T17:33:51.253Z,79.49
2023-05-23T17:36:19.562Z,79.75
2023-05-23T17:38:47.935Z,80.21
2023-05-23T17:41:17.539Z,80.01
2023-05-23T17:43:48.654Z,79.89
2023-05-23T17:46:17.070Z,79.52
2023-05-23T17:48:47.938Z,79.24
2023-05-23T17:51:17.633Z,78.77
2023-05-23T17:53:46.284Z,78.79
2023-05-23T17:56:14.665Z,78.59
2023-05-23T17:58:44.314Z,77.88
2023-05-23T18:01:12.921Z,77.55
2023-05-23T18:03:41.361Z,77.00
2023-05-23T18:06:09.924Z,76.41
2023-05-23T18:08:38.263Z,76.80
2023-05-23T18:11:06.680Z,76.33
2023-05-23T18:13:35.146Z,76.13
2023-05-23T18:16:04.107Z,75.85
2023-05-23T18:18:33.196Z,75.43
2023-05-23T18:21:01.970Z,75.04
2023-05-23T18:23:30.713Z,74.55
2023-05-23T18:25:59.353Z,74.28
2023-05-23T18:28:27.908Z,74.36
2023-05-23T18:30:56.245Z,74.09
2023-05-23T18:33:24.802Z,73.67
2023-05-23T18:35:53.412Z,73.32
2023-05-23T18:38:21.691Z,73.15
2023-05-23T18:40:50.177Z,72.53
2023-05-23T18:43:18.884Z,72.26
2023-05-23T18:45:47.218Z,71.79
2023-05-23T18:48:15.974Z,72.09
2023-05-23T18:50:44.747Z,71.82
2023-05-23T18:53:13.322Z,71.45
2023-05-23T18:55:42.176Z,70.97
2023-05-23T18:58:10.532Z,71.04
2023-05-23T19:00:39.084Z,70.48
2023-05-23T19:03:07.841Z,69.89
2023-05-23T19:05:37.522Z,69.93
2023-05-23T19:08:06.000Z,69.76
2023-05-23T19:10:37.432Z,69.15
2023-05-23T19:13:06.463Z,68.95
2023-05-23T19:15:34.941Z,68.78
2023-05-23T19:18:03.878Z,68.58
2023-05-23T19:20:32.449Z,68.17
2023-05-23T19:23:00.901Z,68.95
2023-05-23T19:25:29.269Z,67.85
2023-05-23T19:27:58.054Z,68.09
2023-05-23T19:30:26.774Z,67.55
2023-05-23T19:32:55.177Z,67.93
2023-05-23T19:35:23.826Z,67.70
2023-05-23T19:37:52.789Z,68.11
2023-05-23T19:40:24.049Z,67.88
2023-05-23T19:42:52.059Z,67.60
2023-05-23T19:45:20.871Z,68.34
2023-05-23T19:47:49.837Z,68.37
2023-05-23T19:50:18.180Z,68.65
2023-05-23T19:52:46.690Z,68.05
2023-05-23T19:55:15.602Z,67.95
2023-05-23T19:57:43.988Z,67.91
2023-05-23T20:00:13.918Z,68.02
2023-05-23T20:02:43.421Z,67.55
2023-05-23T20:05:12.183Z,67.99
2023-05-23T20:07:40.848Z,67.25
2023-05-23T20:10:10.136Z,66.73
2023-05-23T20:12:39.008Z,66.60
2023-05-23T20:15:08.642Z,66.55
2023-05-23T20:17:37.672Z,66.46
2023-05-23T20:20:07.404Z,66.83
2023-05-23T20:22:36.076Z,67.02
2023-05-23T20:25:05.280Z,67.46
2023-05-23T20:27:33.661Z,67.87
2023-05-23T20:30:02.069Z,68.41
2023-05-23T20:32:31.184Z,69.03
2023-05-23T20:34:59.470Z,69.16
2023-05-23T20:37:29.239Z,69.07
2023-05-23T20:39:58.963Z,69.08
2023-05-23T20:42:27.575Z,68.86
2023-05-23T20:44:57.765Z,68.54
2023-05-23T20:47:26.578Z,68.34
2023-05-23T20:49:54.956Z,68.84
2023-05-23T20:52:23.868Z,68.62
2023-05-23T20:54:53.356Z,69.13
2023-05-23T20:57:22.862Z,69.58
2023-05-23T20:59:51.357Z,68.98
2023-05-23T21:02:19.684Z,68.78
2023-05-23T21:04:47.962Z,69.00
2023-05-23T21:07:16.549Z,68.29
2023-05-23T21:09:44.894Z,68.28
2023-05-23T21:12:13.199Z,68.02
2023-05-23T21:14:41.601Z,67.65
2023-05-23T21:17:10.691Z,67.50
2023-05-23T21:19:39.157Z,67.44
2023-05-23T21:22:07.492Z,67.72
2023-05-23T21:24:35.920Z,67.00
2023-05-23T21:27:04.449Z,67.40
2023-05-23T21:29:32.911Z,67.34
2023-05-23T21:32:01.388Z,67.32
2023-05-23T21:34:29.875Z,67.79
2023-05-23T21:36:58.204Z,67.86
2023-05-23T21:39:33.079Z,67.72
2023-05-23T21:42:08.622Z,67.52
2023-05-23T21:44:38.832Z,67.64
2023-05-23T21:47:09.355Z,67.88
2023-05-23T21:49:38.841Z,67.65
2023-05-23T21:52:07.473Z,67.02
2023-05-23T21:54:36.007Z,67.10
2023-05-23T21:57:04.651Z,66.67
2023-05-23T21:59:32.991Z,66.28
2023-05-23T22:02:01.780Z,66.69
2023-05-23T22:04:30.074Z,66.70
2023-05-23T22:06:59.377Z,66.67
2023-05-23T22:09:28.217Z,66.69
2023-05-23T22:11:57.363Z,66.36
2023-05-23T22:14:25.781Z,66.41
2023-05-23T22:16:55.390Z,66.11
2023-05-23T22:19:31.938Z,66.58
2023-05-23T22:22:00.452Z,66.60
2023-05-23T22:24:30.302Z,66.58
2023-05-23T22:27:02.203Z,67.06
2023-05-23T22:29:31.090Z,67.16
2023-05-23T22:32:17.303Z,67.51
2023-05-23T22:34:49.148Z,67.26
2023-05-23T22:37:17.882Z,67.47
2023-05-23T22:39:48.883Z,67.98
2023-05-23T22:42:17.571Z,68.24
2023-05-23T22:44:46.583Z,68.07
2023-05-23T22:47:19.115Z,67.61
2023-05-23T22:49:49.673Z,68.11
2023-05-23T22:52:18.250Z,67.91
2023-05-23T22:54:53.312Z,68.26
2023-05-23T22:57:21.951Z,67.99
2023-05-23T23:02:32.701Z,68.76
2023-05-23T23:05:27.426Z,68.53
2023-05-23T23:08:15.069Z,68.88
2023-05-23T23:13:31.863Z,69.77
2023-05-23T23:16:50.094Z,69.65
2023-05-23T23:19:18.836Z,69.63
2023-05-23T23:21:47.168Z,69.58
2023-05-23T23:31:51.859Z,70.19
2023-05-23T23:43:15.476Z,72.68
